createdAt,value
2018-03-25T00:02:17.534Z,6.70
2018-03-25T00:04:46.845Z,5.10
2018-03-25T00:07:16.888Z,6.83
2018-03-25T00:09:46.262Z,5.60
2018-03-25T00:12:15.561Z,5.97
2018-03-25T00:14:44.833Z,5.87
2018-03-25T00:17:14.245Z,6.13
2018-03-25T00:19:43.494Z,5.73
2018-03-25T00:22:12.763Z,7.17
2018-03-25T00:24:42.221Z,5.87
2018-03-25T00:27:11.478Z,4.53
2018-03-25T00:29:40.861Z,6.07
2018-03-25T00:32:10.274Z,6.70
2018-03-25T00:34:41.166Z,5.50
2018-03-25T00:37:10.463Z,5.90
2018-03-25T00:39:40.679Z,5.43
2018-03-25T00:42:09.988Z,6.03
2018-03-25T00:44:39.290Z,6.23
2018-03-25T00:47:08.565Z,5.40
2018-03-25T00:49:37.825Z,6.90
2018-03-25T00:52:07.074Z,6.80
2018-03-25T00:54:36.467Z,6.30
2018-03-25T00:57:05.702Z,7.00
2018-03-25T00:59:34.953Z,5.33
2018-03-25T01:02:04.978Z,6.47
2018-03-25T01:04:34.265Z,5.63
2018-03-25T01:07:03.520Z,7.30
2018-03-25T01:09:32.854Z,5.63
2018-03-25T01:12:02.071Z,4.93
2018-03-25T01:14:32.109Z,6.73
2018-03-25T01:17:01.423Z,6.13
2018-03-25T01:19:30.644Z,5.83
2018-03-25T01:22:00.076Z,6.17
2018-03-25T01:24:29.322Z,5.30
2018-03-25T01:26:58.584Z,6.60
2018-03-25T01:29:27.889Z,6.50
2018-03-25T01:31:57.127Z,6.90
2018-03-25T01:34:27.166Z,7.30
2018-03-25T01:36:56.453Z,6.20
2018-03-25T01:39:25.662Z,6.53
2018-03-25T01:41:55.147Z,6.00
2018-03-25T01:44:25.150Z,5.73
2018-03-25T01:46:54.420Z,7.27
2018-03-25T01:49:23.870Z,6.87
2018-03-25T01:51:54.181Z,6.87
2018-03-25T01:54:23.414Z,6.60
2018-03-25T01:56:52.662Z,6.17
2018-03-25T01:59:23.449Z,6.03
2018-03-25T02:01:52.746Z,5.93
2018-03-25T02:04:22.021Z,7.50
2018-03-25T02:06:51.318Z,6.10
2018-03-25T02:09:22.564Z,6.93
2018-03-25T02:11:51.798Z,6.10
2018-03-25T02:14:21.071Z,7.00
2018-03-25T02:16:50.948Z,6.10
2018-03-25T02:19:20.148Z,7.10
2018-03-25T02:21:49.382Z,6.87
2018-03-25T02:24:18.763Z,6.63
2018-03-25T02:26:48.815Z,7.43
2018-03-25T02:29:18.172Z,7.30
2018-03-25T02:31:47.579Z,6.17
2018-03-25T02:34:16.877Z,7.60
2018-03-25T02:36:46.162Z,7.30
2018-03-25T02:39:15.432Z,7.70
2018-03-25T02:41:44.876Z,6.87
2018-03-25T02:44:14.330Z,6.10
2018-03-25T02:46:43.585Z,6.17
2018-03-25T02:49:14.393Z,6.70
2018-03-25T02:51:43.632Z,6.90
2018-03-25T02:54:12.910Z,7.10
2018-03-25T02:56:42.330Z,7.77
2018-03-25T02:59:11.581Z,7.20
2018-03-25T03:01:40.858Z,6.80
2018-03-25T03:04:10.263Z,6.40
2018-03-25T03:06:39.567Z,7.63
2018-03-25T03:09:09.654Z,9.23
2018-03-25T03:11:39.034Z,6.43
2018-03-25T03:14:08.290Z,7.17
2018-03-25T03:16:38.507Z,6.63
2018-03-25T03:19:07.806Z,7.17
2018-03-25T03:21:37.053Z,7.37
2018-03-25T03:24:06.700Z,5.60
2018-03-25T03:26:36.337Z,7.40
2018-03-25T03:29:05.662Z,7.37
2018-03-25T03:31:34.919Z,7.93
2018-03-25T03:34:04.175Z,6.10
2018-03-25T03:36:33.433Z,6.53
2018-03-25T03:39:02.682Z,6.23
2018-03-25T03:41:31.998Z,6.20
2018-03-25T03:44:01.266Z,5.90
2018-03-25T03:46:30.538Z,5.90
2018-03-25T03:48:59.986Z,6.27
2018-03-25T03:51:29.449Z,6.63
2018-03-25T03:53:59.463Z,7.07
2018-03-25T03:56:28.741Z,8.23
2018-03-25T03:58:57.996Z,6.80
2018-03-25T04:01:28.056Z,6.80
2018-03-25T04:03:57.313Z,7.20
2018-03-25T04:06:26.561Z,7.47
2018-03-25T04:08:55.841Z,7.60
2018-03-25T04:11:25.122Z,7.07
2018-03-25T04:13:54.515Z,5.80
2018-03-25T04:16:23.761Z,7.87
2018-03-25T04:18:53.025Z,7.07
2018-03-25T04:21:23.213Z,7.73
2018-03-25T04:23:52.486Z,5.80
2018-03-25T04:26:21.731Z,6.87
2018-03-25T04:28:51.794Z,7.90
2018-03-25T04:31:21.090Z,6.80
2018-03-25T04:33:50.369Z,5.90
2018-03-25T04:36:19.647Z,7.70
2018-03-25T04:38:48.958Z,7.10
2018-03-25T04:41:18.198Z,8.07
2018-03-25T04:43:47.497Z,7.30
2018-03-25T04:46:16.862Z,6.77
2018-03-25T04:48:46.131Z,7.43
2018-03-25T04:51:15.447Z,6.97
2018-03-25T04:53:46.198Z,6.50
2018-03-25T04:56:15.476Z,6.73
2018-03-25T04:58:44.747Z,6.17
2018-03-25T05:01:14.783Z,7.37
2018-03-25T05:03:44.046Z,7.07
2018-03-25T05:06:13.314Z,7.43
2018-03-25T05:08:43.360Z,6.70
2018-03-25T05:11:12.735Z,6.47
2018-03-25T05:13:41.969Z,6.40
2018-03-25T05:16:11.238Z,7.10
2018-03-25T05:18:40.543Z,6.40
2018-03-25T05:21:10.580Z,8.07
2018-03-25T05:23:39.805Z,7.20
2018-03-25T05:26:09.060Z,6.63
2018-03-25T05:28:39.080Z,7.50
2018-03-25T05:31:08.481Z,6.63
2018-03-25T05:33:38.690Z,7.20
2018-03-25T05:36:07.955Z,7.27
2018-03-25T05:38:37.255Z,8.00
2018-03-25T05:41:06.514Z,7.53
2018-03-25T05:43:36.607Z,7.17
2018-03-25T05:46:05.872Z,7.00
2018-03-25T05:48:35.143Z,7.27
2018-03-25T05:51:04.365Z,8.20
2018-03-25T05:53:33.653Z,7.20
2018-03-25T05:56:02.926Z,6.90
2018-03-25T05:58:32.428Z,7.13
2018-03-25T06:01:01.713Z,9.00
2018-03-25T06:03:30.990Z,8.20
2018-03-25T06:06:00.258Z,6.80
2018-03-25T06:08:29.505Z,7.37
2018-03-25T06:10:59.498Z,8.57
2018-03-25T06:13:28.797Z,6.47
2018-03-25T06:15:58.155Z,7.83
2018-03-25T06:18:27.357Z,6.73
2018-03-25T06:20:56.616Z,8.60
2018-03-25T06:23:25.911Z,7.50
2018-03-25T06:25:55.249Z,8.10
2018-03-25T06:28:24.491Z,6.80
2018-03-25T06:30:53.738Z,8.07
2018-03-25T06:33:23.068Z,8.93
2018-03-25T06:35:52.777Z,7.83
2018-03-25T06:38:22.831Z,6.90
2018-03-25T06:40:53.126Z,8.23
2018-03-25T06:43:22.375Z,7.70
2018-03-25T06:45:51.622Z,7.30
2018-03-25T06:48:20.872Z,8.00
2018-03-25T06:50:50.176Z,8.17
2018-03-25T06:53:19.395Z,6.80
2018-03-25T06:55:48.663Z,6.33
2018-03-25T06:58:18.057Z,6.73
2018-03-25T07:00:47.284Z,9.20
2018-03-25T07:03:16.566Z,7.27
2018-03-25T07:05:46.674Z,8.37
2018-03-25T07:08:15.931Z,8.50
2018-03-25T07:10:45.247Z,10.57
2018-03-25T07:13:14.786Z,8.53
2018-03-25T07:15:44.116Z,10.23
2018-03-25T07:18:13.410Z,9.20
2018-03-25T07:20:42.689Z,9.37
2018-03-25T07:23:11.934Z,9.70
2018-03-25T07:25:41.213Z,10.13
2018-03-25T07:28:10.586Z,11.67
2018-03-25T07:30:39.834Z,10.97
2018-03-25T07:33:09.111Z,9.77
2018-03-25T07:35:38.386Z,9.07
2018-03-25T07:38:07.651Z,11.17
2018-03-25T07:40:36.931Z,10.60
2018-03-25T07:43:06.264Z,10.77
2018-03-25T07:45:35.528Z,11.57
2018-03-25T07:48:04.925Z,10.37
2018-03-25T07:50:35.010Z,10.50
2018-03-25T07:53:04.279Z,11.53
2018-03-25T07:55:33.676Z,10.83
2018-03-25T07:58:02.930Z,11.50
2018-03-25T08:00:32.329Z,11.47
2018-03-25T08:03:01.606Z,11.57
2018-03-25T08:05:31.642Z,11.13
2018-03-25T08:08:00.917Z,11.17
2018-03-25T08:10:30.349Z,11.83
2018-03-25T08:13:00.387Z,11.30
2018-03-25T08:15:29.671Z,10.30
2018-03-25T08:17:59.698Z,11.67
2018-03-25T08:20:28.978Z,12.40
2018-03-25T08:22:59.029Z,10.60
2018-03-25T08:25:28.410Z,11.10
2018-03-25T08:27:57.734Z,12.23
2018-03-25T08:30:27.810Z,11.60
2018-03-25T08:32:57.887Z,11.23
2018-03-25T08:35:27.298Z,11.63
2018-03-25T08:37:56.750Z,13.07
2018-03-25T08:40:26.802Z,12.80
2018-03-25T08:42:56.087Z,10.87
2018-03-25T08:45:25.382Z,12.83
2018-03-25T08:47:54.666Z,13.20
2018-03-25T08:50:23.926Z,12.70
2018-03-25T08:52:53.220Z,12.43
2018-03-25T08:55:22.678Z,12.37
2018-03-25T08:57:52.738Z,11.87
2018-03-25T09:00:22.021Z,11.07
2018-03-25T09:02:51.299Z,13.13
2018-03-25T09:05:21.374Z,12.47
2018-03-25T09:07:50.616Z,12.60
2018-03-25T09:10:20.672Z,13.57
2018-03-25T09:12:49.932Z,12.87
2018-03-25T09:15:19.985Z,13.90
2018-03-25T09:17:49.252Z,12.23
2018-03-25T09:20:19.305Z,13.37
2018-03-25T09:22:48.649Z,14.03
2018-03-25T09:25:17.920Z,13.00
2018-03-25T09:27:47.190Z,12.03
2018-03-25T09:30:16.673Z,13.37
2018-03-25T09:32:46.107Z,14.40
2018-03-25T09:35:16.136Z,13.43
2018-03-25T09:37:45.438Z,13.97
2018-03-25T09:40:14.697Z,13.80
2018-03-25T09:42:44.042Z,13.63
2018-03-25T09:45:13.312Z,12.73
2018-03-25T09:47:43.352Z,14.67
2018-03-25T09:50:12.632Z,14.00
2018-03-25T09:52:42.681Z,13.77
2018-03-25T09:55:12.007Z,14.10
2018-03-25T09:57:41.317Z,13.00
2018-03-25T10:00:10.575Z,13.97
2018-03-25T10:02:42.663Z,14.87
2018-03-25T10:05:11.990Z,13.17
2018-03-25T10:07:41.277Z,13.90
2018-03-25T10:10:10.540Z,14.33
2018-03-25T10:12:40.613Z,14.63
2018-03-25T10:15:10.744Z,15.73
2018-03-25T10:17:40.048Z,15.53
2018-03-25T10:20:09.361Z,14.93
2018-03-25T10:22:38.655Z,14.70
2018-03-25T10:25:07.950Z,14.70
2018-03-25T10:27:37.256Z,15.03
2018-03-25T10:30:06.555Z,16.37
2018-03-25T10:32:35.846Z,16.80
2018-03-25T10:35:05.131Z,15.40
2018-03-25T10:37:34.421Z,15.90
2018-03-25T10:40:03.789Z,16.10
2018-03-25T10:42:33.119Z,14.13
2018-03-25T10:45:02.418Z,17.00
2018-03-25T10:47:31.702Z,15.70
2018-03-25T10:50:01.737Z,16.27
2018-03-25T10:52:31.042Z,16.23
2018-03-25T10:55:00.327Z,17.23
2018-03-25T10:57:30.408Z,16.60
2018-03-25T10:59:59.670Z,16.13
2018-03-25T11:02:29.719Z,16.07
2018-03-25T11:04:59.600Z,16.27
2018-03-25T11:07:29.666Z,15.20
2018-03-25T11:09:58.989Z,14.00
2018-03-25T11:12:28.290Z,16.23
2018-03-25T11:14:57.535Z,16.90
2018-03-25T11:17:26.918Z,17.87
2018-03-25T11:19:56.961Z,15.10
2018-03-25T11:22:26.231Z,15.70
2018-03-25T11:24:55.694Z,16.47
2018-03-25T11:27:24.934Z,15.70
2018-03-25T11:29:55.224Z,15.07
2018-03-25T11:32:24.512Z,15.80
2018-03-25T11:34:53.826Z,14.73
2018-03-25T11:37:23.077Z,14.00
2018-03-25T11:39:52.354Z,16.43
2018-03-25T11:42:22.394Z,15.53
2018-03-25T11:44:52.584Z,15.17
2018-03-25T11:47:21.880Z,14.47
2018-03-25T11:49:51.166Z,14.73
2018-03-25T11:52:20.492Z,15.07
2018-03-25T11:54:49.776Z,14.67
2018-03-25T11:57:19.506Z,15.67
2018-03-25T11:59:48.769Z,15.90
2018-03-25T12:02:18.072Z,13.93
2018-03-25T12:04:47.612Z,15.27
2018-03-25T12:07:16.880Z,16.40
2018-03-25T12:09:46.353Z,17.20
2018-03-25T12:12:15.667Z,15.33
2018-03-25T12:14:44.947Z,15.13
2018-03-25T12:17:14.317Z,15.10
2018-03-25T12:19:43.937Z,15.33
2018-03-25T12:22:13.249Z,15.20
2018-03-25T12:24:42.493Z,14.70
2018-03-25T12:27:11.753Z,15.90
2018-03-25T12:29:41.487Z,16.30
2018-03-25T12:32:10.957Z,15.43
2018-03-25T12:34:40.238Z,15.20
2018-03-25T12:37:09.502Z,15.47
2018-03-25T12:39:38.765Z,16.83
2018-03-25T12:42:08.293Z,14.37
2018-03-25T12:44:37.650Z,13.80
2018-03-25T12:47:06.942Z,17.07
2018-03-25T12:49:36.313Z,15.03
2018-03-25T12:52:05.603Z,14.10
2018-03-25T12:54:35.671Z,13.83
2018-03-25T12:57:04.971Z,15.87
2018-03-25T12:59:34.249Z,13.47
2018-03-25T13:02:03.524Z,14.23
2018-03-25T13:04:33.210Z,15.17
2018-03-25T13:07:02.865Z,14.70
2018-03-25T13:09:32.187Z,14.40
2018-03-25T13:12:01.754Z,14.40
2018-03-25T13:14:31.107Z,14.40
2018-03-25T13:17:00.420Z,14.40
2018-03-25T13:19:29.926Z,13.90
2018-03-25T13:21:59.278Z,15.30
2018-03-25T13:24:29.302Z,14.30
2018-03-25T13:26:58.615Z,14.60
2018-03-25T13:29:27.891Z,13.77
2018-03-25T13:31:57.188Z,15.00
2018-03-25T13:34:26.465Z,15.77
2018-03-25T13:36:55.711Z,14.50
2018-03-25T13:39:25.038Z,14.83
2018-03-25T13:41:54.353Z,14.50
2018-03-25T13:44:23.645Z,15.60
2018-03-25T13:46:53.791Z,13.63
2018-03-25T13:49:23.079Z,12.93
2018-03-25T13:51:52.398Z,14.13
2018-03-25T13:54:21.728Z,14.17
2018-03-25T13:56:51.929Z,14.13
2018-03-25T13:59:21.964Z,14.00
2018-03-25T14:01:51.295Z,14.43
2018-03-25T14:04:20.675Z,15.47
2018-03-25T14:06:50.015Z,16.10
2018-03-25T14:09:19.440Z,16.93
2018-03-25T14:11:48.738Z,15.67
2018-03-25T14:14:18.239Z,14.80
2018-03-25T14:16:47.572Z,15.80
2018-03-25T14:19:18.346Z,15.60
2018-03-25T14:21:48.541Z,15.33
2018-03-25T14:24:17.806Z,14.67
2018-03-25T14:26:47.084Z,14.80
2018-03-25T14:29:16.376Z,14.50
2018-03-25T14:31:45.672Z,13.60
2018-03-25T14:34:14.938Z,16.27
2018-03-25T14:36:44.359Z,14.40
2018-03-25T14:39:13.843Z,13.80
2018-03-25T14:41:47.361Z,14.47
2018-03-25T14:44:16.664Z,14.57
2018-03-25T14:46:46.711Z,15.13
2018-03-25T14:49:16.019Z,16.07
2018-03-25T14:51:45.323Z,15.13
2018-03-25T14:54:14.712Z,15.30
2018-03-25T14:56:44.227Z,14.57
2018-03-25T14:59:13.501Z,15.00
2018-03-25T15:01:43.526Z,13.90
2018-03-25T15:04:13.626Z,12.57
2018-03-25T15:06:42.978Z,12.70
2018-03-25T15:09:12.303Z,15.40
2018-03-25T15:11:41.553Z,14.53
2018-03-25T15:14:11.602Z,13.10
2018-03-25T15:16:40.931Z,13.07
2018-03-25T15:19:10.184Z,12.27
2018-03-25T15:21:39.492Z,12.07
2018-03-25T15:24:08.941Z,12.40
2018-03-25T15:26:38.221Z,13.03
2018-03-25T15:29:07.547Z,13.10
2018-03-25T15:31:36.978Z,10.20
2018-03-25T15:34:07.406Z,12.27
2018-03-25T15:36:37.601Z,12.10
2018-03-25T15:39:07.048Z,12.50
2018-03-25T15:41:36.297Z,11.77
2018-03-25T15:44:05.627Z,11.60
2018-03-25T15:46:34.973Z,11.80
2018-03-25T15:49:04.346Z,10.50
2018-03-25T15:51:34.474Z,12.23
2018-03-25T15:54:04.507Z,10.67
2018-03-25T15:56:33.808Z,12.07
2018-03-25T15:59:03.074Z,10.20
2018-03-25T16:01:32.359Z,11.70
2018-03-25T16:04:01.789Z,11.40
2018-03-25T16:06:32.123Z,12.90
2018-03-25T16:09:02.146Z,10.50
2018-03-25T16:11:31.465Z,10.47
2018-03-25T16:14:01.878Z,12.23
2018-03-25T16:16:31.907Z,11.17
2018-03-25T16:19:01.406Z,11.37
2018-03-25T16:21:30.668Z,12.20
2018-03-25T16:23:59.928Z,9.93
2018-03-25T16:26:29.293Z,8.20
2018-03-25T16:28:58.588Z,9.40
2018-03-25T16:31:27.853Z,9.77
2018-03-25T16:33:57.142Z,10.43
2018-03-25T16:36:26.660Z,10.07
2018-03-25T16:38:56.758Z,10.70
2018-03-25T16:41:26.039Z,8.63
2018-03-25T16:43:56.367Z,9.10
2018-03-25T16:46:25.659Z,8.57
2018-03-25T16:48:55.685Z,9.77
2018-03-25T16:51:25.774Z,9.77
2018-03-25T16:53:55.066Z,9.13
2018-03-25T16:56:24.358Z,7.83
2018-03-25T16:58:53.633Z,8.30
2018-03-25T17:01:23.837Z,7.67
2018-03-25T17:03:53.089Z,7.43
2018-03-25T17:06:22.359Z,6.73
2018-03-25T17:08:52.435Z,6.33
2018-03-25T17:11:21.725Z,7.53
2018-03-25T17:13:51.100Z,7.23
2018-03-25T17:16:20.534Z,6.47
2018-03-25T17:18:49.836Z,7.10
2018-03-25T17:21:19.237Z,6.70
2018-03-25T17:23:48.479Z,6.43
2018-03-25T17:26:17.776Z,6.80
2018-03-25T17:28:47.688Z,5.80
2018-03-25T17:31:17.342Z,5.30
2018-03-25T17:33:47.432Z,5.60
2018-03-25T17:36:17.002Z,7.07
2018-03-25T17:38:46.239Z,5.90
2018-03-25T17:41:15.640Z,6.30
2018-03-25T17:43:44.972Z,6.50
2018-03-25T17:46:14.975Z,6.30
2018-03-25T17:48:44.269Z,5.17
2018-03-25T17:51:14.182Z,5.40
2018-03-25T17:53:43.490Z,4.90
2018-03-25T17:56:13.502Z,5.53
2018-03-25T17:58:43.585Z,4.97
2018-03-25T18:01:12.870Z,5.63
2018-03-25T18:03:42.155Z,5.87
2018-03-25T18:06:11.427Z,5.23
2018-03-25T18:08:40.693Z,7.37
2018-03-25T18:11:10.030Z,6.20
2018-03-25T18:13:39.358Z,5.97
2018-03-25T18:16:08.628Z,5.80
2018-03-25T18:18:38.664Z,5.63
2018-03-25T18:21:08.693Z,6.63
2018-03-25T18:23:38.007Z,7.07
2018-03-25T18:26:07.291Z,4.67
2018-03-25T18:28:36.558Z,5.67
2018-03-25T18:31:05.801Z,5.63
2018-03-25T18:33:35.099Z,5.77
2018-03-25T18:36:04.369Z,6.10
2018-03-25T18:38:34.446Z,6.30
2018-03-25T18:41:03.721Z,5.33
2018-03-25T18:43:32.969Z,5.60
2018-03-25T18:46:02.534Z,5.50
2018-03-25T18:48:31.926Z,5.10
2018-03-25T18:51:01.343Z,5.47
2018-03-25T18:53:30.655Z,6.23
2018-03-25T18:55:59.942Z,5.60
2018-03-25T18:58:29.182Z,6.13
2018-03-25T19:00:58.639Z,5.50
2018-03-25T19:03:28.671Z,5.30
2018-03-25T19:05:57.937Z,6.63
2018-03-25T19:08:27.474Z,5.50
2018-03-25T19:10:56.722Z,6.00
2018-03-25T19:13:26.107Z,5.33
2018-03-25T19:15:55.462Z,5.80
2018-03-25T19:18:25.551Z,5.53
2018-03-25T19:20:54.858Z,5.50
2018-03-25T19:23:24.126Z,4.90
2018-03-25T19:25:53.452Z,6.53
2018-03-25T19:28:22.722Z,5.67
2018-03-25T19:30:52.006Z,6.17
2018-03-25T19:33:21.284Z,5.77
2018-03-25T19:35:50.578Z,4.93
2018-03-25T19:38:19.825Z,5.57
2018-03-25T19:40:49.120Z,6.40
2018-03-25T19:43:18.390Z,5.70
2018-03-25T19:45:47.690Z,5.20
2018-03-25T19:48:17.760Z,5.40
2018-03-25T19:50:47.007Z,6.40
2018-03-25T19:53:16.521Z,6.13
2018-03-25T19:55:48.268Z,5.23
2018-03-25T19:58:17.544Z,6.60
2018-03-25T20:00:46.801Z,5.80
2018-03-25T20:03:16.974Z,6.03
2018-03-25T20:05:46.222Z,7.47
2018-03-25T20:08:15.702Z,6.10
2018-03-25T20:10:45.770Z,6.00
2018-03-25T20:13:15.231Z,5.77
2018-03-25T20:15:45.266Z,6.33
2018-03-25T20:18:14.543Z,6.53
2018-03-25T20:20:45.350Z,5.70
2018-03-25T20:23:14.617Z,6.53
2018-03-25T20:25:43.898Z,7.17
2018-03-25T20:28:13.355Z,7.33
2018-03-25T20:30:42.830Z,7.17
2018-03-25T20:33:12.072Z,6.87
2018-03-25T20:35:41.372Z,6.77
2018-03-25T20:38:10.668Z,6.90
2018-03-25T20:40:39.940Z,9.67
2018-03-25T20:43:09.203Z,7.70
2018-03-25T20:45:38.562Z,7.87
2018-03-25T20:48:07.853Z,7.17
2018-03-25T20:50:37.143Z,7.40
2018-03-25T20:53:06.578Z,7.43
2018-03-25T20:55:35.829Z,8.50
2018-03-25T20:58:05.282Z,8.50
2018-03-25T21:00:34.579Z,8.60
2018-03-25T21:03:03.835Z,8.77
2018-03-25T21:05:33.113Z,8.80
2018-03-25T21:08:02.363Z,9.40
2018-03-25T21:10:31.799Z,9.40
2018-03-25T21:13:01.139Z,10.30
2018-03-25T21:15:30.418Z,8.83
2018-03-25T21:17:59.682Z,9.90
2018-03-25T21:20:29.026Z,10.40
2018-03-25T21:22:59.083Z,12.07
2018-03-25T21:25:28.353Z,11.10
2018-03-25T21:27:57.604Z,13.60
2018-03-25T21:30:26.927Z,13.47
2018-03-25T21:32:56.207Z,12.87
2018-03-25T21:35:25.468Z,13.63
2018-03-25T21:37:54.844Z,12.77
2018-03-25T21:40:24.102Z,15.07
2018-03-25T21:42:53.359Z,14.30
2018-03-25T21:45:22.761Z,13.00
2018-03-25T21:47:52.125Z,15.10
2018-03-25T21:50:21.445Z,14.87
2018-03-25T21:52:50.711Z,15.30
2018-03-25T21:55:19.985Z,12.20
2018-03-25T21:57:49.412Z,13.97
2018-03-25T22:00:18.719Z,14.60
2018-03-25T22:02:47.975Z,14.70
2018-03-25T22:05:18.031Z,14.40
2018-03-25T22:07:47.616Z,15.57
2018-03-25T22:10:17.656Z,14.60
2018-03-25T22:12:47.182Z,15.70
2018-03-25T22:15:16.467Z,14.57
2018-03-25T22:17:45.810Z,15.67
2018-03-25T22:20:15.074Z,16.03
2018-03-25T22:22:44.551Z,14.73
2018-03-25T22:25:13.851Z,13.53
2018-03-25T22:27:43.126Z,14.47
2018-03-25T22:30:12.414Z,14.30
2018-03-25T22:32:41.708Z,13.97
2018-03-25T22:35:11.106Z,13.33
2018-03-25T22:37:40.396Z,14.10
2018-03-25T22:40:09.645Z,15.57
2018-03-25T22:42:38.951Z,15.27
2018-03-25T22:45:08.313Z,15.63
2018-03-25T22:47:37.770Z,13.77
2018-03-25T22:50:07.105Z,17.43
2018-03-25T22:52:36.368Z,14.27
2018-03-25T22:55:05.742Z,14.70
2018-03-25T22:57:35.811Z,13.97
2018-03-25T23:00:05.274Z,13.70
2018-03-25T23:02:34.271Z,13.97
2018-03-25T23:05:04.507Z,14.47
2018-03-25T23:07:33.749Z,12.50
2018-03-25T23:10:03.035Z,13.20
2018-03-25T23:12:32.276Z,13.40
2018-03-25T23:15:01.548Z,10.87
2018-03-25T23:17:30.829Z,13.40
2018-03-25T23:20:00.090Z,14.73
2018-03-25T23:22:29.374Z,13.30
2018-03-25T23:24:58.657Z,14.33
2018-03-25T23:27:27.952Z,14.37
2018-03-25T23:29:57.970Z,13.90
2018-03-25T23:32:27.269Z,14.13
2018-03-25T23:34:56.517Z,14.97
2018-03-25T23:37:25.751Z,12.67
2018-03-25T23:39:55.033Z,13.47
2018-03-25T23:42:25.055Z,14.50
2018-03-25T23:44:54.290Z,14.37
2018-03-25T23:47:23.542Z,13.77
2018-03-25T23:49:53.621Z,13.57
2018-03-25T23:52:22.839Z,15.17
2018-03-25T23:54:52.115Z,15.80
2018-03-25T23:57:21.376Z,14.20
2018-03-25T23:59:51.412Z,13.33
